Time,TemperatureF,DewpointF,PressureIn,WindDirection,WindDirectionDegrees,WindSpeedMPH,WindSpeedGustMPH,Humidity,HourlyPrecipIn,Conditions,Clouds,dailyrainin,SolarRadiationWatts/m^2,SoftwareType,DateUTC
2013-01-12 00:02:00,3.0,-7.0,-100.00,WNW,292,6.0,7.0,61,0.00,,,0.00,0.000000,,2013-01-12 07:02:00,
2013-01-12 00:11:00,3.0,-7.0,-100.00,WNW,292,6.0,7.0,61,0.00,,,0.00,0.000000,,2013-01-12 07:11:00,
2013-01-12 00:32:00,2.0,-7.0,-100.00,West,269,2.0,6.0,66,0.00,,,0.00,0.000000,,2013-01-12 07:32:00,
2013-01-12 00:42:00,2.0,-7.0,-100.00,West,269,2.0,6.0,66,0.00,,,0.00,0.000000,,2013-01-12 07:42:00,
2013-01-12 00:52:00,2.0,-7.0,-100.00,West,269,2.0,6.0,66,0.00,,,0.00,0.000000,,2013-01-12 07:52:00,
2013-01-12 01:02:00,2.0,-7.0,-100.00,West,269,2.0,6.0,66,0.00,,,0.00,0.000000,,2013-01-12 08:02:00,
2013-01-12 01:11:00,2.0,-7.0,-100.00,West,269,2.0,6.0,66,0.00,,,0.00,0.000000,,2013-01-12 08:11:00,
2013-01-12 01:42:00,1.0,-6.0,-100.00,NE,35,2.0,3.0,71,0.00,,,0.00,0.000000,,2013-01-12 08:42:00,
2013-01-12 01:52:00,1.0,-6.0,-100.00,NE,35,2.0,3.0,71,0.00,,,0.00,0.000000,,2013-01-12 08:52:00,
2013-01-12 02:02:00,1.0,-6.0,-100.00,NE,35,2.0,3.0,71,0.00,,,0.00,0.000000,,2013-01-12 09:02:00,
2013-01-12 02:11:00,1.0,-6.0,-100.00,NE,35,2.0,3.0,71,0.00,,,0.00,0.000000,,2013-01-12 09:11:00,
2013-01-12 02:32:00,0.0,-5.0,-100.00,NNW,342,7.0,8.0,77,0.00,,,0.00,0.000000,,2013-01-12 09:32:00,
2013-01-12 02:42:00,0.0,-5.0,-100.00,NNW,342,7.0,8.0,77,0.00,,,0.00,0.000000,,2013-01-12 09:42:00,
2013-01-12 02:53:00,0.0,-5.0,-100.00,NNW,342,7.0,8.0,77,0.00,,,0.00,0.000000,,2013-01-12 09:53:00,
2013-01-12 03:02:00,0.0,-5.0,-100.00,NNW,342,7.0,8.0,77,0.00,,,0.00,0.000000,,2013-01-12 10:02:00,
2013-01-12 03:11:00,0.0,-5.0,-100.00,NNW,342,7.0,8.0,77,0.00,,,0.00,0.000000,,2013-01-12 10:11:00,
2013-01-12 03:12:00,1.0,-4.0,-100.00,North,351,7.0,11.0,77,0.00,,,0.00,0.000000,,2013-01-12 10:12:00,
2013-01-12 03:32:00,1.0,-4.0,-100.00,North,351,7.0,11.0,77,0.00,,,0.00,0.000000,,2013-01-12 10:32:00,
2013-01-12 03:43:00,1.0,-4.0,-100.00,North,351,7.0,11.0,77,0.00,,,0.00,0.000000,,2013-01-12 10:43:00,
2013-01-12 03:52:00,1.0,-4.0,-100.00,North,351,7.0,11.0,77,0.00,,,0.00,0.000000,,2013-01-12 10:52:00,
2013-01-12 04:02:00,1.0,-4.0,-100.00,North,351,7.0,11.0,77,0.00,,,0.00,0.000000,,2013-01-12 11:02:00,
2013-01-12 04:33:00,0.0,-6.0,-100.00,North,354,3.0,8.0,75,0.00,,,0.00,0.000000,,2013-01-12 11:33:00,
2013-01-12 04:42:00,0.0,-6.0,-100.00,North,354,3.0,8.0,75,0.00,,,0.00,0.000000,,2013-01-12 11:42:00,
2013-01-12 04:53:00,0.0,-6.0,-100.00,North,354,3.0,8.0,75,0.00,,,0.00,0.000000,,2013-01-12 11:53:00,
2013-01-12 05:02:00,0.0,-6.0,-100.00,North,354,3.0,8.0,75,0.00,,,0.00,0.000000,,2013-01-12 12:02:00,
2013-01-12 05:11:00,0.0,-6.0,-100.00,North,354,3.0,8.0,75,0.00,,,0.00,0.000000,,2013-01-12 12:11:00,
2013-01-12 05:33:00,0.0,-6.0,-100.00,North,8,2.0,4.0,74,0.00,,,0.00,0.000000,,2013-01-12 12:33:00,
2013-01-12 05:43:00,0.0,-6.0,-100.00,North,8,2.0,4.0,74,0.00,,,0.00,0.000000,,2013-01-12 12:43:00,
2013-01-12 05:53:00,0.0,-6.0,-100.00,North,8,2.0,4.0,74,0.00,,,0.00,0.000000,,2013-01-12 12:53:00,
2013-01-12 06:02:00,0.0,-6.0,-100.00,North,8,2.0,4.0,74,0.00,,,0.00,0.000000,,2013-01-12 13:02:00,
2013-01-12 06:11:00,0.0,-6.0,-100.00,North,8,2.0,4.0,74,0.00,,,0.00,0.000000,,2013-01-12 13:11:00,
2013-01-12 06:12:00,-1.0,-8.0,-100.00,ESE,106,4.0,6.0,73,0.00,,,0.00,0.000000,,2013-01-12 13:12:00,
2013-01-12 06:33:00,-1.0,-8.0,-100.00,ESE,106,4.0,6.0,73,0.00,,,0.00,0.000000,,2013-01-12 13:33:00,
2013-01-12 06:43:00,-1.0,-8.0,-100.00,ESE,106,4.0,6.0,73,0.00,,,0.00,0.000000,,2013-01-12 13:43:00,
2013-01-12 06:53:00,-1.0,-8.0,-100.00,ESE,106,4.0,6.0,73,0.00,,,0.00,0.000000,,2013-01-12 13:53:00,
2013-01-12 07:02:00,-1.0,-8.0,-100.00,ESE,106,4.0,6.0,73,0.00,,,0.00,0.000000,,2013-01-12 14:02:00,
2013-01-12 07:12:00,-2.0,-9.0,-100.00,ENE,76,2.0,4.0,73,0.00,,,0.00,0.000000,,2013-01-12 14:12:00,
2013-01-12 07:33:00,-2.0,-9.0,-100.00,ENE,76,2.0,4.0,73,0.00,,,0.00,0.000000,,2013-01-12 14:33:00,
2013-01-12 07:43:00,-2.0,-9.0,-100.00,ENE,76,2.0,4.0,73,0.00,,,0.00,0.000000,,2013-01-12 14:43:00,
2013-01-12 07:53:00,-2.0,-9.0,-100.00,ENE,76,2.0,4.0,73,0.00,,,0.00,0.000000,,2013-01-12 14:53:00,
2013-01-12 08:03:00,-2.0,-9.0,-100.00,ENE,76,2.0,4.0,73,0.00,,,0.00,0.000000,,2013-01-12 15:03:00,
2013-01-12 08:12:00,5.0,-3.0,-100.00,ESE,118,4.0,5.0,69,0.00,,,-99.99,41.000000,,2013-01-12 15:12:00,
2013-01-12 08:33:00,5.0,-3.0,-100.00,ESE,118,4.0,5.0,69,0.00,,,-99.99,41.000000,,2013-01-12 15:33:00,
2013-01-12 08:43:00,5.0,-3.0,-100.00,ESE,118,4.0,5.0,69,0.00,,,-99.99,41.000000,,2013-01-12 15:43:00,
2013-01-12 08:53:00,5.0,-3.0,-100.00,ESE,118,4.0,5.0,69,0.00,,,-99.99,41.000000,,2013-01-12 15:53:00,
2013-01-12 09:02:00,5.0,-3.0,-100.00,ESE,118,4.0,5.0,69,0.00,,,-99.99,41.000000,,2013-01-12 16:02:00,
2013-01-12 09:12:00,7.0,-4.0,-100.00,North,349,1.0,6.0,59,0.00,,,0.00,203.000000,,2013-01-12 16:12:00,
2013-01-12 09:33:00,7.0,-4.0,-100.00,North,349,1.0,6.0,59,0.00,,,0.00,203.000000,,2013-01-12 16:33:00,
2013-01-12 09:43:00,7.0,-4.0,-100.00,North,349,1.0,6.0,59,0.00,,,0.00,203.000000,,2013-01-12 16:43:00,
2013-01-12 09:53:00,7.0,-4.0,-100.00,North,349,1.0,6.0,59,0.00,,,0.00,203.000000,,2013-01-12 16:53:00,
2013-01-12 10:02:00,7.0,-4.0,-100.00,North,349,1.0,6.0,59,0.00,,,0.00,203.000000,,2013-01-12 17:02:00,
2013-01-12 10:12:00,13.0,-1.0,-100.00,East,89,3.0,7.0,53,0.00,,,0.00,339.000000,,2013-01-12 17:12:00,
2013-01-12 10:33:00,13.0,-1.0,-100.00,East,89,3.0,7.0,53,0.00,,,0.00,339.000000,,2013-01-12 17:33:00,
2013-01-12 10:43:00,13.0,-1.0,-100.00,East,89,3.0,7.0,53,0.00,,,0.00,339.000000,,2013-01-12 17:43:00,
2013-01-12 10:53:00,13.0,-1.0,-100.00,East,89,3.0,7.0,53,0.00,,,0.00,339.000000,,2013-01-12 17:53:00,
2013-01-12 11:02:00,13.0,-1.0,-100.00,East,89,3.0,7.0,53,0.00,,,0.00,339.000000,,2013-01-12 18:02:00,
2013-01-12 11:12:00,12.0,-3.0,-100.00,NNW,337,4.0,8.0,51,0.00,,,0.00,477.000000,,2013-01-12 18:12:00,
2013-01-12 11:33:00,12.0,-3.0,-100.00,NNW,337,4.0,8.0,51,0.00,,,0.00,477.000000,,2013-01-12 18:33:00,
2013-01-12 11:43:00,12.0,-3.0,-100.00,NNW,337,4.0,8.0,51,0.00,,,0.00,477.000000,,2013-01-12 18:43:00,
2013-01-12 11:53:00,12.0,-3.0,-100.00,NNW,337,4.0,8.0,51,0.00,,,0.00,477.000000,,2013-01-12 18:53:00,
2013-01-12 12:03:00,12.0,-3.0,-100.00,NNW,337,4.0,8.0,51,0.00,,,0.00,477.000000,,2013-01-12 19:03:00,
2013-01-12 12:12:00,14.0,-2.0,-100.00,NW,304,3.0,9.0,48,0.00,,,0.00,420.000000,,2013-01-12 19:12:00,
2013-01-12 12:33:00,14.0,-2.0,-100.00,NW,304,3.0,9.0,48,0.00,,,0.00,420.000000,,2013-01-12 19:33:00,
2013-01-12 12:43:00,14.0,-2.0,-100.00,NW,304,3.0,9.0,48,0.00,,,0.00,420.000000,,2013-01-12 19:43:00,
2013-01-12 12:53:00,14.0,-2.0,-100.00,NW,304,3.0,9.0,48,0.00,,,0.00,420.000000,,2013-01-12 19:53:00,
2013-01-12 13:02:00,14.0,-2.0,-100.00,NW,304,3.0,9.0,48,0.00,,,0.00,420.000000,,2013-01-12 20:02:00,
2013-01-12 13:12:00,18.0,1.0,-100.00,NW,315,3.0,9.0,46,0.00,,,0.00,373.000000,,2013-01-12 20:12:00,
2013-01-12 13:33:00,18.0,1.0,-100.00,NW,315,3.0,9.0,46,0.00,,,0.00,373.000000,,2013-01-12 20:33:00,
2013-01-12 13:43:00,18.0,1.0,-100.00,NW,315,3.0,9.0,46,0.00,,,0.00,373.000000,,2013-01-12 20:43:00,
2013-01-12 13:53:00,18.0,1.0,-100.00,NW,315,3.0,9.0,46,0.00,,,0.00,373.000000,,2013-01-12 20:53:00,
2013-01-12 14:02:00,18.0,1.0,-100.00,NW,315,3.0,9.0,46,0.00,,,0.00,373.000000,,2013-01-12 21:02:00,
2013-01-12 14:12:00,13.0,-4.0,-100.00,West,268,4.0,12.0,46,0.00,,,0.00,359.000000,,2013-01-12 21:12:00,
2013-01-12 14:33:00,13.0,-4.0,-100.00,West,268,4.0,12.0,46,0.00,,,0.00,359.000000,,2013-01-12 21:33:00,
2013-01-12 14:43:00,13.0,-4.0,-100.00,West,268,4.0,12.0,46,0.00,,,0.00,359.000000,,2013-01-12 21:43:00,
2013-01-12 14:53:00,13.0,-4.0,-100.00,West,268,4.0,12.0,46,0.00,,,0.00,359.000000,,2013-01-12 21:53:00,
2013-01-12 15:02:00,13.0,-4.0,-100.00,West,268,4.0,12.0,46,0.00,,,0.00,359.000000,,2013-01-12 22:02:00,
2013-01-12 15:12:00,15.0,-4.0,-100.00,WNW,287,5.0,11.0,41,0.00,,,0.00,433.000000,,2013-01-12 22:12:00,
2013-01-12 15:33:00,15.0,-4.0,-100.00,WNW,287,5.0,11.0,41,0.00,,,0.00,433.000000,,2013-01-12 22:33:00,
2013-01-12 15:43:00,15.0,-4.0,-100.00,WNW,287,5.0,11.0,41,0.00,,,0.00,433.000000,,2013-01-12 22:43:00,
2013-01-12 15:53:00,15.0,-4.0,-100.00,WNW,287,5.0,11.0,41,0.00,,,0.00,433.000000,,2013-01-12 22:53:00,
2013-01-12 16:02:00,15.0,-4.0,-100.00,WNW,287,5.0,11.0,41,0.00,,,0.00,433.000000,,2013-01-12 23:02:00,
2013-01-12 16:33:00,10.0,-4.0,-100.00,WSW,243,4.0,11.0,51,0.00,,,0.00,139.000000,,2013-01-12 23:33:00,
2013-01-12 16:43:00,10.0,-4.0,-100.00,WSW,243,4.0,11.0,51,0.00,,,0.00,139.000000,,2013-01-12 23:43:00,
2013-01-12 16:53:00,10.0,-4.0,-100.00,WSW,243,4.0,11.0,51,0.00,,,0.00,139.000000,,2013-01-12 23:53:00,
2013-01-12 17:02:00,10.0,-4.0,-100.00,WSW,243,4.0,11.0,51,0.00,,,0.00,139.000000,,2013-01-13 00:02:00,
2013-01-12 17:11:00,10.0,-4.0,-100.00,WSW,243,4.0,11.0,51,0.00,,,0.00,139.000000,,2013-01-13 00:11:00,
2013-01-12 17:12:00,4.0,-5.0,-100.00,West,262,6.0,11.0,65,0.00,,,0.00,20.000000,,2013-01-13 00:12:00,
2013-01-12 17:33:00,4.0,-5.0,-100.00,West,262,6.0,11.0,65,0.00,,,0.00,20.000000,,2013-01-13 00:33:00,
2013-01-12 17:43:00,4.0,-5.0,-100.00,West,262,6.0,11.0,65,0.00,,,0.00,20.000000,,2013-01-13 00:43:00,
2013-01-12 17:53:00,4.0,-5.0,-100.00,West,262,6.0,11.0,65,0.00,,,0.00,20.000000,,2013-01-13 00:53:00,
2013-01-12 18:02:00,4.0,-5.0,-100.00,West,262,6.0,11.0,65,0.00,,,0.00,20.000000,,2013-01-13 01:02:00,
2013-01-12 18:12:00,3.0,-6.0,-100.00,WNW,285,8.0,12.0,66,0.00,,,0.00,0.000000,,2013-01-13 01:12:00,
2013-01-12 18:43:00,3.0,-6.0,-100.00,WNW,285,8.0,12.0,66,0.00,,,0.00,0.000000,,2013-01-13 01:43:00,
2013-01-12 18:53:00,3.0,-6.0,-100.00,WNW,285,8.0,12.0,66,0.00,,,0.00,0.000000,,2013-01-13 01:53:00,
2013-01-12 19:02:00,3.0,-6.0,-100.00,WNW,285,8.0,12.0,66,0.00,,,0.00,0.000000,,2013-01-13 02:02:00,
2013-01-12 19:33:00,3.0,-7.0,-100.00,WNW,283,8.0,14.0,63,0.00,,,0.00,0.000000,,2013-01-13 02:33:00,
2013-01-12 19:43:00,3.0,-7.0,-100.00,WNW,283,8.0,14.0,63,0.00,,,0.00,0.000000,,2013-01-13 02:43:00,
2013-01-12 19:53:00,3.0,-7.0,-100.00,WNW,283,8.0,14.0,63,0.00,,,0.00,0.000000,,2013-01-13 02:53:00,
2013-01-12 20:02:00,3.0,-7.0,-100.00,WNW,283,8.0,14.0,63,0.00,,,0.00,0.000000,,2013-01-13 03:02:00,
2013-01-12 20:11:00,3.0,-7.0,-100.00,WNW,283,8.0,14.0,63,0.00,,,0.00,0.000000,,2013-01-13 03:11:00,
2013-01-12 20:12:00,3.0,-5.0,-100.00,West,259,6.0,11.0,68,0.00,,,0.00,0.000000,,2013-01-13 03:12:00,
2013-01-12 20:33:00,3.0,-5.0,-100.00,West,259,6.0,11.0,68,0.00,,,0.00,0.000000,,2013-01-13 03:33:00,
2013-01-12 20:43:00,3.0,-5.0,-100.00,West,259,6.0,11.0,68,0.00,,,0.00,0.000000,,2013-01-13 03:43:00,
2013-01-12 20:53:00,3.0,-5.0,-100.00,West,259,6.0,11.0,68,0.00,,,0.00,0.000000,,2013-01-13 03:53:00,
2013-01-12 21:02:00,3.0,-5.0,-100.00,West,259,6.0,11.0,68,0.00,,,0.00,0.000000,,2013-01-13 04:02:00,
2013-01-12 21:12:00,2.0,-6.0,-100.00,WNW,284,8.0,12.0,69,0.00,,,0.00,0.000000,,2013-01-13 04:12:00,
2013-01-12 21:33:00,2.0,-6.0,-100.00,WNW,284,8.0,12.0,69,0.00,,,0.00,0.000000,,2013-01-13 04:33:00,
2013-01-12 21:43:00,2.0,-6.0,-100.00,WNW,284,8.0,12.0,69,0.00,,,0.00,0.000000,,2013-01-13 04:43:00,
2013-01-12 21:52:00,2.0,-6.0,-100.00,WNW,284,8.0,12.0,69,0.00,,,0.00,0.000000,,2013-01-13 04:52:00,
2013-01-12 22:03:00,2.0,-6.0,-100.00,WNW,284,8.0,12.0,69,0.00,,,0.00,0.000000,,2013-01-13 05:03:00,
2013-01-12 22:12:00,1.0,-6.0,-100.00,South,172,3.0,11.0,70,0.00,,,0.00,0.000000,,2013-01-13 05:12:00,
2013-01-12 22:33:00,1.0,-6.0,-100.00,South,172,3.0,11.0,70,0.00,,,0.00,0.000000,,2013-01-13 05:33:00,
2013-01-12 22:42:00,1.0,-6.0,-100.00,South,172,3.0,11.0,70,0.00,,,0.00,0.000000,,2013-01-13 05:42:00,
2013-01-12 22:53:00,1.0,-6.0,-100.00,South,172,3.0,11.0,70,0.00,,,0.00,0.000000,,2013-01-13 05:53:00,
2013-01-12 23:02:00,1.0,-6.0,-100.00,South,172,3.0,11.0,70,0.00,,,0.00,0.000000,,2013-01-13 06:02:00,
2013-01-12 23:33:00,0.0,-6.0,-100.00,SW,233,4.0,7.0,74,0.00,,,0.00,0.000000,,2013-01-13 06:33:00,
2013-01-12 23:42:00,0.0,-6.0,-100.00,SW,233,4.0,7.0,74,0.00,,,0.00,0.000000,,2013-01-13 06:42:00,
2013-01-12 23:52:00,0.0,-6.0,-100.00,SW,233,4.0,7.0,74,0.00,,,0.00,0.000000,,2013-01-13 06:52:00,